Time;durP1;ratioP1;P1;durP2;ratioP2;P2;SDS_P1;SDS_P2;PMS_P1;PMS_P2;Temp;Humidity;BMP_temperature;BMP_pressure;BME280_temperature;BME280_humidity;BME280_pressure;Samples;Min_cycle;Max_cycle;Signal;HPM_P1;HPM_P2
2022/11/18 00:01:17;;;;;;;4.53;3.00;;;11.20;99.90;;;;;;935443;149;27387;-78
2022/11/18 00:03:44;;;;;;;3.80;2.83;;;11.20;99.90;;;;;;934983;149;27426;-79
2022/11/18 00:06:10;;;;;;;4.47;3.30;;;11.10;99.90;;;;;;935894;149;27350;-79
2022/11/18 00:08:37;;;;;;;5.57;3.47;;;11.00;99.90;;;;;;933197;149;27799;-79
2022/11/18 00:11:09;;;;;;;3.50;3.03;;;11.00;99.90;;;;;;933296;149;27451;-78
2022/11/18 00:16:20;;;;;;;3.97;3.47;;;10.90;99.90;;;;;;935713;149;27273;-79
2022/11/18 00:18:47;;;;;;;6.73;3.43;;;10.80;99.90;;;;;;923021;151;27501;-79
2022/11/18 00:21:13;;;;;;;4.40;3.47;;;10.80;99.90;;;;;;922842;151;27366;-78
2022/11/18 00:23:40;;;;;;;4.97;3.97;;;10.70;99.90;;;;;;924059;154;27340;-78
2022/11/18 00:26:07;;;;;;;6.23;3.93;;;10.70;99.90;;;;;;923383;152;27456;-78
2022/11/18 00:28:33;;;;;;;6.27;3.93;;;10.70;99.90;;;;;;937664;149;27423;-78
2022/11/18 00:31:00;;;;;;;5.33;3.63;;;10.70;99.90;;;;;;940222;149;27326;-79
2022/11/18 00:33:26;;;;;;;5.77;3.97;;;10.70;99.90;;;;;;930335;151;27400;-78
2022/11/18 00:35:53;;;;;;;6.17;3.87;;;10.70;99.90;;;;;;925759;151;27375;-79
2022/11/18 00:38:19;;;;;;;4.30;3.37;;;10.70;99.90;;;;;;921315;154;27325;-78
2022/11/18 00:40:46;;;;;;;5.57;4.00;;;10.70;99.90;;;;;;924263;152;27335;-78
2022/11/18 00:43:13;;;;;;;4.47;3.50;;;10.70;99.90;;;;;;920918;153;27357;-79
2022/11/18 00:45:39;;;;;;;3.53;3.23;;;10.80;99.90;;;;;;937993;149;27343;-79
2022/11/18 00:48:06;;;;;;;5.83;3.40;;;10.80;99.90;;;;;;939487;149;27369;-78
2022/11/18 00:50:32;;;;;;;4.73;3.20;;;10.80;99.90;;;;;;938087;149;27432;-78
2022/11/18 00:52:59;;;;;;;3.93;3.20;;;10.90;99.90;;;;;;938330;149;27379;-77
2022/11/18 00:55:26;;;;;;;5.83;3.33;;;10.90;99.90;;;;;;938623;151;27424;-78
2022/11/18 00:57:52;;;;;;;4.87;3.17;;;11.00;99.90;;;;;;925026;151;27322;-79
2022/11/18 01:00:19;;;;;;;3.40;3.10;;;10.90;99.90;;;;;;922590;152;27393;-78
2022/11/18 01:02:45;;;;;;;4.20;2.73;;;11.00;99.90;;;;;;922631;152;27421;-77
2022/11/18 01:05:12;;;;;;;4.20;3.00;;;11.00;99.90;;;;;;938479;149;27394;-78
2022/11/18 01:07:38;;;;;;;4.13;3.10;;;11.00;99.90;;;;;;938776;149;27398;-78
2022/11/18 01:10:05;;;;;;;3.63;2.80;;;11.00;99.90;;;;;;938975;149;27317;-79
2022/11/18 01:15:16;;;;;;;3.57;3.23;;;11.00;99.90;;;;;;911787;153;27660;-77
2022/11/18 01:17:43;;;;;;;4.70;2.93;;;11.00;99.90;;;;;;909879;154;27425;-77
2022/11/18 01:20:09;;;;;;;3.90;3.20;;;11.00;99.90;;;;;;915345;149;27430;-78
2022/11/18 01:22:36;;;;;;;4.17;3.10;;;11.00;99.90;;;;;;926519;149;27664;-78
2022/11/18 01:25:03;;;;;;;4.27;2.73;;;11.00;99.90;;;;;;925496;149;27353;-78
2022/11/18 01:27:29;;;;;;;5.23;3.50;;;11.00;99.90;;;;;;927317;149;27390;-77
2022/11/18 01:29:56;;;;;;;5.17;3.03;;;11.00;99.90;;;;;;926355;149;27298;-77
2022/11/18 01:32:22;;;;;;;3.43;2.67;;;11.00;99.90;;;;;;927160;149;27483;-77
2022/11/18 01:34:49;;;;;;;2.97;2.77;;;11.10;99.90;;;;;;926686;149;27677;-78
2022/11/18 01:37:16;;;;;;;3.97;2.80;;;11.10;99.90;;;;;;927065;149;27436;-78
2022/11/18 01:39:42;;;;;;;3.67;2.70;;;11.20;99.90;;;;;;926271;149;27368;-77
2022/11/18 01:42:12;;;;;;;3.63;3.00;;;11.20;99.90;;;;;;926326;149;27382;-79
2022/11/18 01:44:59;;;;;;;4.77;2.87;;;11.30;99.90;;;;;;926320;149;27348;-78
2022/11/18 01:47:28;;;;;;;4.33;2.93;;;11.30;99.90;;;;;;882045;157;27468;-78
2022/11/18 01:49:55;;;;;;;3.83;3.00;;;11.30;99.90;;;;;;914618;149;27455;-79
2022/11/18 01:52:21;;;;;;;3.57;3.00;;;11.40;99.90;;;;;;927377;149;27390;-78
2022/11/18 01:54:48;;;;;;;4.03;3.00;;;11.40;99.90;;;;;;928925;149;27322;-78
2022/11/18 01:57:16;;;;;;;2.70;2.50;;;11.40;99.90;;;;;;924766;150;27327;-78
2022/11/18 01:59:41;;;;;;;3.07;2.77;;;11.50;99.90;;;;;;928613;149;27837;-78
2022/11/18 02:02:08;;;;;;;3.50;2.87;;;11.50;99.90;;;;;;926168;153;27373;-78
2022/11/18 02:04:34;;;;;;;3.17;2.70;;;11.50;99.90;;;;;;925315;149;27451;-78
2022/11/18 02:07:01;;;;;;;4.93;3.20;;;11.50;99.90;;;;;;925920;149;27351;-78
2022/11/18 02:09:28;;;;;;;2.87;2.53;;;11.50;99.90;;;;;;927343;149;27446;-79
2022/11/18 02:11:54;;;;;;;4.03;2.97;;;11.60;99.90;;;;;;926938;149;27305;-78
2022/11/18 02:14:30;;;;;;;4.90;3.00;;;11.60;99.90;;;;;;925106;149;27484;-79
2022/11/18 02:17:14;;;;;;;3.90;2.63;;;11.60;99.90;;;;;;927651;149;27446;-78
2022/11/18 02:19:44;;;;;;;5.70;2.80;;;11.60;99.90;;;;;;921907;150;27366;-78
2022/11/18 02:22:23;;;;;;;4.40;3.17;;;11.60;99.90;;;;;;937869;148;27365;-78
2022/11/18 02:24:58;;;;;;;3.27;2.80;;;11.50;99.90;;;;;;937226;148;27307;-78
2022/11/18 02:27:45;;;;;;;3.30;3.00;;;11.50;99.90;;;;;;920752;150;27369;-78
2022/11/18 02:30:12;;;;;;;4.70;2.90;;;11.50;99.90;;;;;;935627;148;27352;-77
2022/11/18 02:32:50;;;;;;;7.47;2.73;;;11.50;99.90;;;;;;937020;149;27325;-77
2022/11/18 02:35:22;;;;;;;4.20;2.60;;;11.40;99.90;;;;;;937457;148;27370;-78
2022/11/18 02:38:08;;;;;;;4.10;2.50;;;11.40;99.90;;;;;;937040;148;27375;-78
2022/11/18 02:40:43;;;;;;;4.43;2.80;;;11.40;99.90;;;;;;936891;149;27382;-77
2022/11/18 02:43:10;;;;;;;5.03;3.30;;;11.40;99.90;;;;;;938545;148;27365;-79
2022/11/18 02:45:37;;;;;;;4.77;2.90;;;11.40;99.90;;;;;;938847;148;27403;-78
2022/11/18 02:48:03;;;;;;;4.20;2.70;;;11.40;99.90;;;;;;937986;149;27342;-78
2022/11/18 02:50:30;;;;;;;3.43;2.47;;;11.40;99.90;;;;;;934476;149;27520;-78
2022/11/18 02:52:56;;;;;;;3.57;2.57;;;11.40;99.90;;;;;;938313;148;27330;-79
2022/11/18 02:55:23;;;;;;;3.00;2.70;;;11.40;99.90;;;;;;938732;149;27463;-78
2022/11/18 02:57:49;;;;;;;5.30;2.60;;;11.40;99.90;;;;;;935424;149;27387;-78
2022/11/18 03:00:16;;;;;;;4.60;3.20;;;11.50;99.90;;;;;;937273;149;27431;-78
2022/11/18 03:02:43;;;;;;;4.13;2.70;;;11.50;99.90;;;;;;937865;149;27440;-78
2022/11/18 03:05:12;;;;;;;7.27;2.67;;;11.50;99.90;;;;;;936221;149;27403;-79
2022/11/18 03:07:39;;;;;;;3.40;2.47;;;11.50;99.90;;;;;;937836;149;27389;-78
2022/11/18 03:10:05;;;;;;;2.97;2.67;;;11.60;99.90;;;;;;936843;149;27373;-78
2022/11/18 03:12:53;;;;;;;2.60;2.40;;;11.60;99.90;;;;;;938370;149;27332;-78
2022/11/18 03:15:53;;;;;;;4.47;2.60;;;11.60;99.90;;;;;;936636;148;27301;-78
2022/11/18 03:18:20;;;;;;;2.70;2.50;;;11.70;99.90;;;;;;935241;149;27331;-78
2022/11/18 03:20:58;;;;;;;4.50;2.97;;;11.70;99.90;;;;;;934100;149;27466;-78
2022/11/18 03:23:43;;;;;;;4.87;3.03;;;11.70;99.90;;;;;;935686;149;27719;-77
2022/11/18 03:26:15;;;;;;;2.93;2.60;;;11.70;99.90;;;;;;936818;148;27352;-77
2022/11/18 03:29:00;;;;;;;4.00;2.73;;;11.80;99.90;;;;;;936711;149;27364;-77
2022/11/18 03:31:45;;;;;;;3.67;2.80;;;11.80;99.90;;;;;;938029;149;27294;-78
2022/11/18 03:34:17;;;;;;;4.73;2.70;;;11.80;99.90;;;;;;939511;148;27863;-79
2022/11/18 03:36:47;;;;;;;3.97;2.50;;;11.80;99.90;;;;;;938003;149;27362;-80
2022/11/18 03:39:13;;;;;;;4.27;3.03;;;11.80;99.90;;;;;;938529;149;27364;-80
2022/11/18 03:41:40;;;;;;;2.83;2.50;;;11.90;99.90;;;;;;936857;148;27422;-80
2022/11/18 03:44:12;;;;;;;2.83;2.60;;;11.90;99.90;;;;;;936458;148;27419;-80
2022/11/18 03:46:51;;;;;;;2.33;2.13;;;11.90;99.90;;;;;;937354;148;27885;-80
2022/11/18 03:49:17;;;;;;;3.50;2.33;;;11.90;99.90;;;;;;938641;149;27310;-79
2022/11/18 03:51:44;;;;;;;3.03;2.77;;;11.90;99.90;;;;;;935955;148;27382;-80
2022/11/18 03:54:13;;;;;;;2.60;2.40;;;12.00;99.90;;;;;;938877;149;27310;-80
2022/11/18 03:56:40;;;;;;;3.30;2.67;;;12.00;99.90;;;;;;936536;148;27419;-80
2022/11/18 03:59:09;;;;;;;2.70;2.43;;;12.00;99.90;;;;;;937081;149;27391;-80
2022/11/18 04:01:57;;;;;;;3.50;3.00;;;12.00;99.90;;;;;;937205;149;27405;-80
2022/11/18 04:04:23;;;;;;;5.60;3.17;;;12.00;99.90;;;;;;937070;149;27386;-80
2022/11/18 04:06:50;;;;;;;3.17;2.87;;;12.10;99.90;;;;;;937887;149;27424;-80
2022/11/18 04:09:35;;;;;;;2.70;2.47;;;12.10;99.90;;;;;;936312;148;27869;-80
2022/11/18 04:12:01;;;;;;;6.67;2.70;;;12.10;99.90;;;;;;936260;149;27315;-80
2022/11/18 04:14:34;;;;;;;3.27;2.90;;;12.10;99.90;;;;;;938066;149;27362;-80
2022/11/18 04:17:00;;;;;;;3.77;2.90;;;12.10;99.90;;;;;;936331;148;27354;-80
2022/11/18 04:19:27;;;;;;;4.60;3.00;;;12.10;99.90;;;;;;936904;149;27348;-80
2022/11/18 04:21:53;;;;;;;2.87;2.40;;;12.10;99.90;;;;;;938246;151;27402;-80
2022/11/18 04:24:20;;;;;;;4.13;3.00;;;12.10;99.90;;;;;;936670;149;27456;-80
2022/11/18 04:26:46;;;;;;;4.53;3.10;;;12.10;99.90;;;;;;938261;148;27454;-80
2022/11/18 04:29:13;;;;;;;3.30;2.83;;;12.10;99.90;;;;;;939078;151;28447;-80
2022/11/18 04:31:40;;;;;;;5.80;3.53;;;12.10;99.90;;;;;;939653;151;27297;-80
2022/11/18 04:34:06;;;;;;;3.20;2.97;;;12.10;99.90;;;;;;938622;151;27826;-80
2022/11/18 04:36:33;;;;;;;2.70;2.50;;;12.10;99.90;;;;;;939863;149;27428;-79
2022/11/18 04:38:59;;;;;;;3.23;2.97;;;12.10;99.90;;;;;;939914;151;27361;-79
2022/11/18 04:41:54;;;;;;;5.00;3.60;;;12.10;99.90;;;;;;938928;149;27373;-79
2022/11/18 04:43:53;;;;;;;5.50;3.00;;;12.10;99.90;;;;;;935863;151;27335;-79
2022/11/18 04:46:19;;;;;;;4.43;3.50;;;12.10;99.90;;;;;;940051;149;27812;-80
2022/11/18 04:48:46;;;;;;;3.60;3.30;;;12.10;99.90;;;;;;937827;148;27317;-80
2022/11/18 04:51:12;;;;;;;4.27;3.67;;;12.10;99.90;;;;;;940608;151;27801;-80
2022/11/18 04:53:39;;;;;;;3.70;3.37;;;12.10;99.90;;;;;;940611;149;27369;-80
2022/11/18 04:56:05;;;;;;;5.90;3.80;;;12.10;99.90;;;;;;940431;149;27393;-80
2022/11/18 04:58:32;;;;;;;3.80;3.30;;;12.10;99.90;;;;;;939546;151;27402;-80
2022/11/18 05:00:59;;;;;;;5.23;3.73;;;12.10;99.90;;;;;;938372;148;27385;-80
2022/11/18 05:03:25;;;;;;;3.97;3.37;;;12.00;99.90;;;;;;937633;151;27406;-80
2022/11/18 05:05:52;;;;;;;3.97;3.67;;;12.00;99.90;;;;;;940111;149;27355;-80
2022/11/18 05:08:18;;;;;;;5.57;4.30;;;12.00;99.90;;;;;;938501;148;27430;-80
2022/11/18 05:10:45;;;;;;;4.80;4.30;;;12.00;99.90;;;;;;939183;148;27435;-81
2022/11/18 05:13:12;;;;;;;5.23;4.47;;;12.00;99.90;;;;;;939646;148;27825;-80
2022/11/18 05:15:38;;;;;;;6.83;4.27;;;12.00;99.90;;;;;;939442;148;27286;-80
2022/11/18 05:18:05;;;;;;;4.50;3.83;;;12.00;99.90;;;;;;939906;151;27463;-80
2022/11/18 05:20:31;;;;;;;4.80;4.30;;;12.00;99.90;;;;;;937629;151;27506;-81
2022/11/18 05:22:58;;;;;;;4.30;3.90;;;12.00;99.90;;;;;;936930;148;27393;-80
2022/11/18 05:25:25;;;;;;;4.00;3.63;;;12.00;99.90;;;;;;939361;149;27442;-80
2022/11/18 05:27:51;;;;;;;4.30;3.57;;;12.00;99.90;;;;;;941603;149;27349;-80
2022/11/18 05:30:18;;;;;;;4.77;4.10;;;12.00;99.90;;;;;;938592;148;27309;-80
2022/11/18 05:32:44;;;;;;;4.00;3.70;;;12.00;99.90;;;;;;938542;151;27430;-80
2022/11/18 05:35:11;;;;;;;4.23;3.83;;;12.00;99.90;;;;;;938808;149;28822;-80
2022/11/18 05:37:37;;;;;;;4.30;3.90;;;12.00;99.90;;;;;;940047;148;27333;-80
2022/11/18 05:40:04;;;;;;;3.70;3.20;;;12.00;99.90;;;;;;938672;149;27383;-80
2022/11/18 05:45:18;;;;;;;4.47;3.83;;;12.00;99.90;;;;;;940328;149;27474;-79
2022/11/18 05:48:00;;;;;;;6.03;3.90;;;12.00;99.90;;;;;;940929;151;27344;-80
2022/11/18 05:50:26;;;;;;;4.90;4.07;;;12.00;99.90;;;;;;939149;148;27860;-80
2022/11/18 05:52:53;;;;;;;6.07;4.47;;;12.00;99.90;;;;;;939556;149;27342;-79
2022/11/18 05:55:20;;;;;;;5.13;4.57;;;12.00;99.90;;;;;;937611;149;27366;-79
2022/11/18 05:57:46;;;;;;;4.70;4.30;;;12.00;99.90;;;;;;939476;151;27317;-80
2022/11/18 06:00:13;;;;;;;4.63;4.23;;;12.00;99.90;;;;;;937240;151;27474;-80
2022/11/18 06:02:40;;;;;;;4.23;3.90;;;11.90;99.90;;;;;;939599;151;27364;-79
2022/11/18 06:05:06;;;;;;;3.90;3.60;;;11.90;99.90;;;;;;938107;149;27470;-80
2022/11/18 06:07:35;;;;;;;4.40;3.73;;;11.90;99.90;;;;;;938195;151;27421;-79
2022/11/18 06:09:59;;;;;;;5.37;4.10;;;12.00;99.90;;;;;;937990;149;27377;-79
2022/11/18 06:12:26;;;;;;;4.50;3.73;;;11.90;99.90;;;;;;940866;151;27355;-80
2022/11/18 06:14:52;;;;;;;4.33;3.77;;;11.90;99.90;;;;;;938607;149;27815;-80
2022/11/18 06:17:22;;;;;;;4.67;4.27;;;11.90;99.90;;;;;;937275;151;27490;-80
2022/11/18 06:19:49;;;;;;;5.37;4.83;;;11.90;99.90;;;;;;936398;151;27304;-79
2022/11/18 06:22:15;;;;;;;5.67;4.73;;;11.90;99.90;;;;;;938050;149;27390;-80
2022/11/18 06:24:42;;;;;;;5.37;4.73;;;11.90;99.90;;;;;;942172;145;27317;-80
2022/11/18 06:27:08;;;;;;;5.70;5.10;;;11.90;99.90;;;;;;940322;149;27387;-79
2022/11/18 06:29:35;;;;;;;5.87;4.57;;;11.90;99.90;;;;;;939445;148;28301;-79
2022/11/18 06:32:02;;;;;;;5.17;4.27;;;11.90;99.90;;;;;;939113;148;27318;-80
2022/11/18 06:34:28;;;;;;;4.43;4.03;;;11.80;99.90;;;;;;938991;149;27337;-80
2022/11/18 06:36:55;;;;;;;4.73;4.00;;;11.80;99.90;;;;;;939036;149;27406;-80
2022/11/18 06:39:21;;;;;;;4.53;4.13;;;11.80;99.90;;;;;;940098;149;27443;-80
2022/11/18 06:41:48;;;;;;;4.40;3.73;;;11.80;99.90;;;;;;939896;149;27373;-80
2022/11/18 06:44:15;;;;;;;4.70;3.50;;;11.80;99.90;;;;;;940856;149;27349;-80
2022/11/18 06:46:56;;;;;;;4.07;3.67;;;11.80;99.90;;;;;;941165;149;27469;-80
2022/11/18 06:49:23;;;;;;;4.60;3.40;;;11.80;99.90;;;;;;939047;149;27345;-80
2022/11/18 06:51:50;;;;;;;3.47;3.20;;;11.80;99.90;;;;;;938275;149;27337;-80
2022/11/18 06:54:16;;;;;;;4.63;3.57;;;11.80;99.90;;;;;;938690;148;27488;-80
2022/11/18 06:56:43;;;;;;;3.77;3.40;;;11.80;99.90;;;;;;939066;148;27321;-80
2022/11/18 06:59:09;;;;;;;3.40;3.10;;;11.80;99.90;;;;;;935942;151;27451;-80
2022/11/18 07:01:36;;;;;;;4.50;3.17;;;11.80;99.90;;;;;;939213;151;27769;-80
2022/11/18 07:04:03;;;;;;;3.47;3.17;;;11.80;99.90;;;;;;937015;149;27799;-80
2022/11/18 07:06:29;;;;;;;5.27;3.90;;;11.80;99.90;;;;;;938797;149;27442;-80
2022/11/18 07:08:56;;;;;;;3.30;3.00;;;11.80;99.90;;;;;;938319;149;27597;-80
2022/11/18 07:11:22;;;;;;;4.20;2.93;;;11.80;99.90;;;;;;938208;151;27293;-80
2022/11/18 07:13:49;;;;;;;5.20;4.37;;;11.80;99.90;;;;;;940213;148;27365;-80
2022/11/18 07:16:15;;;;;;;5.30;4.80;;;11.90;99.90;;;;;;939113;148;27414;-80
2022/11/18 07:18:42;;;;;;;4.70;4.30;;;11.90;99.90;;;;;;939746;149;27381;-80
2022/11/18 07:21:09;;;;;;;4.03;3.73;;;11.90;99.90;;;;;;937817;148;27449;-79
2022/11/18 07:23:35;;;;;;;3.67;3.30;;;11.90;99.90;;;;;;936589;149;28194;-80
2022/11/18 07:26:02;;;;;;;4.73;2.97;;;11.90;99.90;;;;;;936257;149;27395;-80
2022/11/18 07:28:29;;;;;;;4.40;2.77;;;11.90;99.90;;;;;;935660;149;27434;-80
2022/11/18 07:31:04;;;;;;;4.60;3.40;;;12.00;99.90;;;;;;936982;148;27309;-80
2022/11/18 07:33:30;;;;;;;3.40;3.10;;;12.00;99.90;;;;;;936534;149;27800;-80
2022/11/18 07:36:03;;;;;;;3.27;2.97;;;12.00;99.90;;;;;;936924;149;27842;-80
2022/11/18 07:38:29;;;;;;;8.50;7.70;;;12.00;99.90;;;;;;936953;149;27479;-81
2022/11/18 07:40:56;;;;;;;8.83;7.83;;;12.00;99.90;;;;;;937972;148;27415;-80
2022/11/18 07:43:22;;;;;;;3.93;3.60;;;12.10;99.90;;;;;;937040;149;27392;-80
2022/11/18 07:45:49;;;;;;;4.17;3.77;;;12.10;99.90;;;;;;936849;149;27346;-80
2022/11/18 07:48:16;;;;;;;4.90;4.40;;;12.10;99.90;;;;;;936162;148;27325;-80
2022/11/18 07:50:42;;;;;;;5.37;3.77;;;12.10;99.90;;;;;;937287;149;27367;-80
2022/11/18 07:53:09;;;;;;;4.80;4.27;;;12.10;99.90;;;;;;936746;149;27427;-80
2022/11/18 07:55:35;;;;;;;5.90;4.10;;;12.10;99.90;;;;;;937108;149;27394;-80
2022/11/18 07:58:02;;;;;;;5.33;3.47;;;12.20;99.90;;;;;;938642;148;27368;-80
2022/11/18 08:00:29;;;;;;;3.50;3.20;;;12.20;99.90;;;;;;936537;148;27331;-80
2022/11/18 08:02:55;;;;;;;3.07;2.77;;;12.20;99.90;;;;;;937622;149;27374;-80
2022/11/18 08:05:22;;;;;;;3.37;3.10;;;12.30;99.90;;;;;;937453;149;27302;-80
2022/11/18 08:07:48;;;;;;;4.87;3.27;;;12.30;99.90;;;;;;938469;148;27344;-80
2022/11/18 08:10:15;;;;;;;4.10;3.67;;;12.30;99.90;;;;;;938168;149;27471;-80
2022/11/18 08:12:42;;;;;;;4.40;3.77;;;12.30;99.90;;;;;;939929;148;27489;-80
2022/11/18 08:15:08;;;;;;;4.93;3.60;;;12.30;99.90;;;;;;935870;149;27310;-80
2022/11/18 08:17:35;;;;;;;5.17;4.67;;;12.30;99.90;;;;;;938319;148;27327;-80
2022/11/18 08:20:01;;;;;;;6.13;4.20;;;12.40;99.90;;;;;;938460;148;27466;-80
2022/11/18 08:22:28;;;;;;;5.03;3.40;;;12.40;99.90;;;;;;937425;149;27357;-80
2022/11/18 08:24:55;;;;;;;4.00;3.43;;;12.30;99.90;;;;;;939311;151;27495;-80
2022/11/18 08:27:21;;;;;;;4.57;3.30;;;12.40;99.90;;;;;;937607;151;27317;-80
2022/11/18 08:29:48;;;;;;;4.30;3.30;;;12.40;99.90;;;;;;937797;149;27278;-80
2022/11/18 08:32:14;;;;;;;4.93;3.83;;;12.40;99.90;;;;;;938614;151;27345;-80
2022/11/18 08:34:41;;;;;;;4.73;4.33;;;12.40;99.90;;;;;;937702;151;27470;-80
2022/11/18 08:37:07;;;;;;;5.03;4.53;;;12.40;99.90;;;;;;938767;149;27368;-80
2022/11/18 08:39:34;;;;;;;5.80;5.00;;;12.40;99.90;;;;;;938578;151;27325;-80
2022/11/18 08:42:01;;;;;;;6.33;5.67;;;12.40;99.90;;;;;;938458;149;27341;-80
2022/11/18 08:44:27;;;;;;;6.40;5.63;;;12.50;99.90;;;;;;938728;149;27354;-80
2022/11/18 08:46:54;;;;;;;6.77;6.07;;;12.50;99.90;;;;;;937839;151;27423;-80
2022/11/18 08:49:20;;;;;;;6.83;6.13;;;12.50;99.90;;;;;;938205;151;27388;-80
2022/11/18 08:51:47;;;;;;;5.57;4.73;;;12.50;99.90;;;;;;939746;151;27357;-80
2022/11/18 08:54:14;;;;;;;6.10;4.80;;;12.50;99.90;;;;;;939131;151;27420;-80
2022/11/18 08:56:40;;;;;;;5.10;4.60;;;12.50;99.90;;;;;;936967;151;27449;-80
2022/11/18 08:59:07;;;;;;;4.40;4.00;;;12.50;99.90;;;;;;938084;151;27442;-80
2022/11/18 09:01:33;;;;;;;4.83;4.10;;;12.50;99.90;;;;;;939199;151;27349;-79
2022/11/18 09:04:00;;;;;;;4.50;3.63;;;12.50;99.90;;;;;;937056;151;28070;-80
2022/11/18 09:06:26;;;;;;;5.87;3.80;;;12.50;99.90;;;;;;938215;151;27432;-80
2022/11/18 09:08:53;;;;;;;6.53;4.57;;;12.50;99.90;;;;;;938720;149;27486;-80
2022/11/18 09:11:20;;;;;;;6.70;3.33;;;12.50;99.90;;;;;;937327;151;27333;-80
2022/11/18 09:13:46;;;;;;;5.47;3.37;;;12.50;99.90;;;;;;938489;151;27338;-80
2022/11/18 09:16:13;;;;;;;2.73;2.53;;;12.50;99.90;;;;;;939270;151;27431;-80
2022/11/18 09:18:39;;;;;;;2.60;2.40;;;12.50;99.90;;;;;;939590;151;27329;-80
2022/11/18 09:21:06;;;;;;;2.50;2.00;;;12.50;99.90;;;;;;937679;151;27322;-80
2022/11/18 09:23:33;;;;;;;3.13;2.27;;;12.50;99.90;;;;;;937278;149;27472;-80
2022/11/18 09:26:02;;;;;;;2.50;2.07;;;12.60;99.90;;;;;;937544;149;27481;-80
2022/11/18 09:28:28;;;;;;;1.92;1.82;;;12.60;99.90;;;;;;937552;149;27335;-80
2022/11/18 09:30:55;;;;;;;4.37;2.00;;;12.60;99.90;;;;;;938418;149;27392;-80
2022/11/18 09:33:22;;;;;;;2.93;1.97;;;12.60;99.90;;;;;;936679;149;27346;-80
2022/11/18 09:35:48;;;;;;;2.15;2.02;;;12.70;99.90;;;;;;937613;149;27318;-80
2022/11/18 09:38:15;;;;;;;1.90;1.80;;;12.70;99.90;;;;;;938604;149;27467;-80
2022/11/18 09:43:11;;;;;;;3.23;2.27;;;12.70;99.90;;;;;;974631;145;38542;-77
2022/11/18 09:45:38;;;;;;;1.83;1.73;;;12.70;99.90;;;;;;954924;148;27420;-79
2022/11/18 09:48:07;;;;;;;2.87;2.20;;;12.70;99.90;;;;;;958599;147;27211;-80
2022/11/18 09:50:34;;;;;;;1.93;1.73;;;12.70;99.90;;;;;;951266;148;27324;-80
2022/11/18 09:53:07;;;;;;;2.00;1.87;;;12.70;99.90;;;;;;958565;148;27339;-79
2022/11/18 09:55:33;;;;;;;2.60;2.03;;;12.70;99.90;;;;;;953824;148;27829;-80
2022/11/18 09:58:00;;;;;;;2.12;1.77;;;12.70;99.90;;;;;;959364;148;27280;-79
2022/11/18 10:00:26;;;;;;;2.00;1.80;;;12.70;99.90;;;;;;959297;148;27274;-80
2022/11/18 10:03:02;;;;;;;2.00;1.80;;;12.70;99.90;;;;;;958776;148;27319;-78
2022/11/18 10:05:32;;;;;;;1.82;1.72;;;12.70;99.90;;;;;;959049;148;27357;-78
2022/11/18 10:07:58;;;;;;;2.17;1.67;;;12.70;99.90;;;;;;956061;148;27444;-78
2022/11/18 10:10:24;;;;;;;1.90;1.75;;;12.70;99.90;;;;;;944193;151;27405;-79
2022/11/18 10:12:57;;;;;;;1.67;1.57;;;12.80;99.90;;;;;;943439;151;27311;-80
2022/11/18 10:15:26;;;;;;;1.30;1.20;;;12.80;99.90;;;;;;941639;151;27983;-79
2022/11/18 10:18:14;;;;;;;1.72;1.12;;;12.90;99.90;;;;;;942587;151;27278;-78
2022/11/18 10:20:56;;;;;;;0.83;0.83;;;12.90;99.90;;;;;;943955;151;27275;-79
2022/11/18 10:23:26;;;;;;;1.27;0.90;;;13.00;99.90;;;;;;921117;151;27300;-80
2022/11/18 10:25:52;;;;;;;1.72;1.45;;;13.00;99.90;;;;;;943559;151;27320;-79
2022/11/18 10:28:24;;;;;;;1.15;1.05;;;13.10;99.90;;;;;;944036;151;27380;-79
2022/11/18 10:30:51;;;;;;;2.07;1.10;;;13.10;99.90;;;;;;943991;151;27410;-79
2022/11/18 10:33:23;;;;;;;1.13;1.10;;;13.20;99.90;;;;;;943365;151;27269;-81
2022/11/18 10:35:50;;;;;;;1.00;0.90;;;13.20;99.90;;;;;;943671;151;27458;-79
2022/11/18 10:38:19;;;;;;;1.22;0.90;;;13.30;99.90;;;;;;943801;151;27376;-79
2022/11/18 10:40:52;;;;;;;2.35;0.80;;;13.40;99.90;;;;;;944171;151;28648;-81
2022/11/18 10:43:52;;;;;;;1.95;0.90;;;13.40;99.90;;;;;;947704;150;27460;-79
2022/11/18 10:46:31;;;;;;;1.45;1.35;;;13.50;99.90;;;;;;947661;151;27354;-81
2022/11/18 10:49:09;;;;;;;1.23;1.13;;;13.60;99.90;;;;;;948073;151;27925;-79
2022/11/18 10:51:36;;;;;;;1.50;1.22;;;13.70;99.90;;;;;;948714;151;27749;-79
2022/11/18 10:54:21;;;;;;;1.00;0.93;;;13.80;99.90;;;;;;947371;151;27365;-80
2022/11/18 10:56:47;;;;;;;1.15;1.10;;;13.80;99.90;;;;;;947402;151;27380;-79
2022/11/18 10:59:22;;;;;;;1.07;1.02;;;13.90;99.90;;;;;;946935;151;27359;-80
2022/11/18 11:02:01;;;;;;;1.87;1.17;;;13.90;99.90;;;;;;936380;151;27984;-79
2022/11/18 11:04:28;;;;;;;1.40;1.30;;;14.00;99.90;;;;;;946255;151;27285;-79
2022/11/18 11:06:54;;;;;;;1.30;1.25;;;14.00;99.90;;;;;;947198;151;27408;-81
2022/11/18 11:09:26;;;;;;;1.47;1.37;;;14.10;99.90;;;;;;948253;151;27482;-79
2022/11/18 11:12:11;;;;;;;1.82;1.32;;;14.10;99.90;;;;;;947824;151;27377;-79
2022/11/18 11:14:43;;;;;;;2.50;1.75;;;14.20;99.90;;;;;;948331;148;27367;-79
2022/11/18 11:17:13;;;;;;;2.22;1.60;;;14.20;99.90;;;;;;947300;151;27344;-80
2022/11/18 11:19:45;;;;;;;1.55;1.45;;;14.10;99.90;;;;;;948567;151;27436;-79
2022/11/18 11:22:11;;;;;;;1.47;1.30;;;14.10;99.90;;;;;;947620;151;27428;-79
2022/11/18 11:24:38;;;;;;;1.87;1.40;;;14.10;99.90;;;;;;948260;151;27318;-79
2022/11/18 11:27:23;;;;;;;2.37;1.60;;;14.10;99.90;;;;;;948344;151;27409;-80
2022/11/18 11:29:52;;;;;;;2.45;2.20;;;14.10;99.90;;;;;;948480;148;27409;-80
2022/11/18 11:32:28;;;;;;;3.50;1.60;;;14.10;99.90;;;;;;945534;151;27364;-79
2022/11/18 11:35:09;;;;;;;1.72;1.62;;;14.10;99.90;;;;;;930981;151;27355;-80
2022/11/18 11:37:41;;;;;;;2.47;1.62;;;14.20;99.90;;;;;;947620;148;27299;-79
2022/11/18 11:40:28;;;;;;;1.67;1.57;;;14.20;99.90;;;;;;946030;151;27528;-79
2022/11/18 11:42:55;;;;;;;3.25;1.80;;;14.30;99.90;;;;;;947035;148;28378;-80
2022/11/18 11:45:34;;;;;;;1.72;1.62;;;14.30;99.90;;;;;;946448;151;27411;-79
2022/11/18 11:48:09;;;;;;;1.62;1.50;;;14.40;99.90;;;;;;946766;151;27304;-80
2022/11/18 11:51:02;;;;;;;1.60;1.45;;;14.50;99.90;;;;;;947681;151;27348;-82
2022/11/18 11:53:17;;;;;;;1.75;1.37;;;14.50;99.90;;;;;;934038;151;27292;-79
2022/11/18 11:55:55;;;;;;;1.40;1.27;;;14.60;99.90;;;;;;947462;151;27410;-79
2022/11/18 11:58:33;;;;;;;2.77;1.70;;;14.60;99.90;;;;;;947295;148;27783;-80
2022/11/18 12:01:00;;;;;;;2.60;1.65;;;14.70;99.90;;;;;;946422;151;27401;-80
2022/11/18 12:03:39;;;;;;;2.70;1.35;;;14.70;99.90;;;;;;946037;151;27929;-78
2022/11/18 12:06:05;;;;;;;2.35;1.47;;;14.80;99.90;;;;;;923730;151;27327;-79
2022/11/18 12:08:32;;;;;;;3.47;1.85;;;14.80;99.90;;;;;;947453;148;27421;-78
2022/11/18 12:11:07;;;;;;;1.87;1.77;;;14.80;99.90;;;;;;948150;148;27289;-79
2022/11/18 12:13:34;;;;;;;1.80;1.57;;;14.80;99.90;;;;;;947544;151;27346;-80
2022/11/18 12:16:04;;;;;;;1.60;1.50;;;14.90;99.90;;;;;;934421;151;27331;-79
2022/11/18 12:18:45;;;;;;;2.27;1.50;;;14.90;99.90;;;;;;942608;151;27320;-79
2022/11/18 12:21:46;;;;;;;1.77;1.62;;;14.90;99.90;;;;;;947818;148;27313;-79
2022/11/18 12:24:29;;;;;;;4.85;2.42;;;14.90;99.90;;;;;;948481;151;27402;-80
2022/11/18 12:26:51;;;;;;;1.50;1.40;;;14.90;99.90;;;;;;945567;151;27347;-80
2022/11/18 12:29:17;;;;;;;1.85;1.62;;;14.90;99.90;;;;;;948583;148;27394;-82
2022/11/18 12:31:46;;;;;;;3.22;1.67;;;14.90;99.90;;;;;;948759;151;27425;-79
2022/11/18 12:34:19;;;;;;;2.45;1.35;;;14.90;99.90;;;;;;943306;151;27416;-80
2022/11/18 12:36:45;;;;;;;1.87;1.77;;;14.90;99.90;;;;;;947133;151;27287;-79
2022/11/18 12:39:24;;;;;;;2.47;1.80;;;14.90;99.90;;;;;;948389;151;27333;-80
2022/11/18 12:44:38;;;;;;;1.72;1.30;;;14.90;99.90;;;;;;939484;149;27467;-80
2022/11/18 12:47:11;;;;;;;3.40;1.50;;;14.90;99.90;;;;;;937456;152;27364;-79
2022/11/18 12:49:37;;;;;;;4.22;1.80;;;14.90;99.90;;;;;;935264;150;27389;-79
2022/11/18 12:52:22;;;;;;;1.37;1.30;;;14.90;99.90;;;;;;937706;152;27362;-80
2022/11/18 12:54:48;;;;;;;1.27;1.25;;;14.90;99.90;;;;;;936761;150;27380;-78
2022/11/18 12:57:15;;;;;;;1.60;1.50;;;15.00;99.90;;;;;;937092;152;27429;-80
2022/11/18 12:59:42;;;;;;;2.05;1.50;;;15.00;99.90;;;;;;936819;152;27400;-79
2022/11/18 13:02:11;;;;;;;1.60;1.45;;;15.10;99.90;;;;;;937297;152;27320;-79
2022/11/18 13:04:38;;;;;;;2.47;1.65;;;15.10;99.90;;;;;;937140;150;27471;-80
2022/11/18 13:07:04;;;;;;;1.95;1.42;;;15.20;99.90;;;;;;936319;152;27354;-79
2022/11/18 13:09:31;;;;;;;1.40;1.30;;;15.20;99.90;;;;;;936320;150;27506;-79
2022/11/18 13:11:57;;;;;;;1.52;1.40;;;15.30;99.90;;;;;;936395;151;27394;-79